createdAt,value
2018-07-02T00:01:03.974Z,1.03
2018-07-02T00:03:32.527Z,1.07
2018-07-02T00:06:06.432Z,1.10
2018-07-02T00:08:34.918Z,1.43
2018-07-02T00:11:03.389Z,1.03
2018-07-02T00:13:33.655Z,1.80
2018-07-02T00:16:02.035Z,1.40
2018-07-02T00:18:30.256Z,1.20
2018-07-02T00:20:58.749Z,1.10
2018-07-02T00:23:27.171Z,1.20
2018-07-02T00:25:55.682Z,1.50
2018-07-02T00:28:24.210Z,1.93
2018-07-02T00:30:52.661Z,1.47
2018-07-02T00:33:21.230Z,1.33
2018-07-02T00:35:49.614Z,1.10
2018-07-02T00:38:18.134Z,1.60
2018-07-02T00:40:47.538Z,1.23
2018-07-02T00:43:16.139Z,1.60
2018-07-02T00:45:44.557Z,1.13
2018-07-02T00:48:13.052Z,1.43
2018-07-02T00:50:41.576Z,1.00
2018-07-02T00:53:09.955Z,1.50
2018-07-02T00:55:41.409Z,1.57
2018-07-02T00:58:13.563Z,1.40
2018-07-02T01:00:41.967Z,1.57
2018-07-02T01:03:10.295Z,1.30
2018-07-02T01:05:38.656Z,1.20
2018-07-02T01:08:07.052Z,1.27
2018-07-02T01:10:35.296Z,1.00
2018-07-02T01:13:03.531Z,2.03
2018-07-02T01:15:31.785Z,1.77
2018-07-02T01:18:00.035Z,1.10
2018-07-02T01:20:28.310Z,1.40
2018-07-02T01:22:56.534Z,1.10
2018-07-02T01:25:24.875Z,1.10
2018-07-02T01:27:53.134Z,1.57
2018-07-02T01:30:21.466Z,1.70
2018-07-02T01:32:49.711Z,1.20
2018-07-02T01:35:19.013Z,1.30
2018-07-02T01:37:47.371Z,1.40
2018-07-02T01:40:15.617Z,1.27
2018-07-02T01:42:43.966Z,1.10
2018-07-02T01:45:12.287Z,1.70
2018-07-02T01:47:40.486Z,1.00
2018-07-02T01:50:08.767Z,1.00
2018-07-02T01:52:37.094Z,1.40
2018-07-02T01:55:05.376Z,1.50
2018-07-02T01:57:33.712Z,2.27
2018-07-02T02:00:02.045Z,1.50
2018-07-02T02:02:30.272Z,1.30
2018-07-02T02:04:58.524Z,1.30
2018-07-02T02:07:26.925Z,1.10
2018-07-02T02:09:55.236Z,1.73
2018-07-02T02:12:23.593Z,1.37
2018-07-02T02:14:51.825Z,2.07
2018-07-02T02:17:20.651Z,1.40
2018-07-02T02:19:48.958Z,1.43
2018-07-02T02:22:17.197Z,1.23
2018-07-02T02:24:45.405Z,1.20
2018-07-02T02:27:13.772Z,1.03
2018-07-02T02:29:42.069Z,1.13
2018-07-02T02:32:10.389Z,1.33
2018-07-02T02:34:38.641Z,1.67
2018-07-02T02:37:06.972Z,1.60
2018-07-02T02:39:35.207Z,1.20
2018-07-02T02:42:03.541Z,1.50
2018-07-02T02:44:31.879Z,1.47
2018-07-02T02:47:00.177Z,1.20
2018-07-02T02:49:28.525Z,1.60
2018-07-02T02:51:56.805Z,1.77
2018-07-02T02:54:25.276Z,2.10
2018-07-02T02:56:53.695Z,1.00
2018-07-02T02:59:21.980Z,1.07
2018-07-02T03:01:50.282Z,1.10
2018-07-02T03:04:18.825Z,1.80
2018-07-02T03:06:47.199Z,2.20
2018-07-02T03:09:15.564Z,1.30
2018-07-02T03:11:43.914Z,1.60
2018-07-02T03:14:12.265Z,1.67
2018-07-02T03:16:40.650Z,1.67
2018-07-02T03:19:08.925Z,1.80
2018-07-02T03:21:37.170Z,1.73
2018-07-02T03:24:05.440Z,1.97
2018-07-02T03:26:33.765Z,1.13
2018-07-02T03:29:03.144Z,1.40
2018-07-02T03:31:31.380Z,2.23
2018-07-02T03:33:59.764Z,1.97
2018-07-02T03:36:28.006Z,1.40
2018-07-02T03:38:56.421Z,1.40
2018-07-02T03:41:24.740Z,1.70
2018-07-02T03:43:53.046Z,1.30
2018-07-02T03:46:21.445Z,1.93
2018-07-02T03:48:49.829Z,1.70
2018-07-02T03:51:18.070Z,1.70
2018-07-02T03:53:46.497Z,1.63
2018-07-02T03:56:14.855Z,1.60
2018-07-02T03:58:43.107Z,1.23
2018-07-02T04:01:11.510Z,1.40
2018-07-02T04:03:39.715Z,1.50
2018-07-02T04:06:08.113Z,1.80
2018-07-02T04:08:36.513Z,1.90
2018-07-02T04:11:04.837Z,1.77
2018-07-02T04:13:33.093Z,1.93
2018-07-02T04:16:01.491Z,1.63
2018-07-02T04:18:29.765Z,1.80
2018-07-02T04:20:58.131Z,1.70
2018-07-02T04:23:26.436Z,1.90
2018-07-02T04:25:54.835Z,2.10
2018-07-02T04:28:23.077Z,1.50
2018-07-02T04:30:51.443Z,1.90
2018-07-02T04:33:19.851Z,1.30
2018-07-02T04:35:48.191Z,1.43
2018-07-02T04:38:16.590Z,2.00
2018-07-02T04:40:45.028Z,1.90
2018-07-02T04:43:13.378Z,1.50
2018-07-02T04:45:41.816Z,1.80
2018-07-02T04:48:10.242Z,1.47
2018-07-02T04:50:38.508Z,1.40
2018-07-02T04:53:06.740Z,1.30
2018-07-02T04:55:35.077Z,1.53
2018-07-02T04:58:03.543Z,1.63
2018-07-02T05:00:31.959Z,1.70
2018-07-02T05:03:00.307Z,1.93
2018-07-02T05:05:28.732Z,1.53
2018-07-02T05:07:57.139Z,1.40
2018-07-02T05:10:25.505Z,1.47
2018-07-02T05:12:53.926Z,2.07
2018-07-02T05:15:22.268Z,1.60
2018-07-02T05:17:50.630Z,1.77
2018-07-02T05:20:18.920Z,1.50
2018-07-02T05:22:47.240Z,1.60
2018-07-02T05:25:15.571Z,1.00
2018-07-02T05:27:43.930Z,1.20
2018-07-02T05:30:12.201Z,1.70
2018-07-02T05:32:42.539Z,1.03
2018-07-02T05:35:11.722Z,1.17
2018-07-02T05:37:40.295Z,1.60
2018-07-02T05:40:08.663Z,1.80
2018-07-02T05:42:37.028Z,1.50
2018-07-02T05:45:05.498Z,1.53
2018-07-02T05:47:33.887Z,1.27
2018-07-02T05:50:02.280Z,1.83
2018-07-02T05:52:30.659Z,1.13
2018-07-02T05:54:59.000Z,1.90
2018-07-02T05:57:27.313Z,1.57
2018-07-02T05:59:55.731Z,1.40
2018-07-02T06:02:24.111Z,1.20
2018-07-02T06:04:52.496Z,1.13
2018-07-02T06:07:20.859Z,1.20
2018-07-02T06:09:49.246Z,1.47
2018-07-02T06:12:17.626Z,1.53
2018-07-02T06:14:45.887Z,1.30
2018-07-02T06:17:14.141Z,1.40
2018-07-02T06:19:43.524Z,2.00
2018-07-02T06:22:11.902Z,1.30
2018-07-02T06:24:40.408Z,1.77
2018-07-02T06:27:08.585Z,1.87
2018-07-02T06:29:36.850Z,1.27
2018-07-02T06:32:06.051Z,1.30
2018-07-02T06:34:34.385Z,1.80
2018-07-02T06:37:02.598Z,1.63
2018-07-02T06:39:31.002Z,1.23
2018-07-02T06:41:59.863Z,1.57
2018-07-02T06:44:28.336Z,1.30
2018-07-02T06:46:56.662Z,1.87
2018-07-02T06:49:25.035Z,1.87
2018-07-02T06:51:54.177Z,1.87
2018-07-02T06:54:22.489Z,1.60
2018-07-02T06:56:52.218Z,1.33
2018-07-02T06:59:20.613Z,1.40
2018-07-02T07:01:49.549Z,1.20
2018-07-02T07:04:17.895Z,1.23
2018-07-02T07:06:46.342Z,1.60
2018-07-02T07:09:15.642Z,1.27
2018-07-02T07:11:43.894Z,1.37
2018-07-02T07:14:13.210Z,1.70
2018-07-02T07:16:41.767Z,1.30
2018-07-02T07:19:09.975Z,1.30
2018-07-02T07:21:38.278Z,1.43
2018-07-02T07:24:07.891Z,1.50
2018-07-02T07:26:36.233Z,1.70
2018-07-02T07:29:04.606Z,1.63
2018-07-02T07:31:33.028Z,1.80
2018-07-02T07:34:01.321Z,1.00
2018-07-02T07:36:29.701Z,1.30
2018-07-02T07:38:58.038Z,1.30
2018-07-02T07:41:27.478Z,1.23
2018-07-02T07:43:55.726Z,1.93
2018-07-02T07:46:24.486Z,1.47
2018-07-02T07:48:52.719Z,1.60
2018-07-02T07:51:21.075Z,1.40
2018-07-02T07:53:49.410Z,1.30
2018-07-02T07:56:17.734Z,1.10
2018-07-02T07:58:46.048Z,1.77
2018-07-02T08:01:14.661Z,1.90
2018-07-02T08:03:43.001Z,1.53
2018-07-02T08:06:11.447Z,2.10
2018-07-02T08:08:39.882Z,1.80
2018-07-02T08:11:08.176Z,1.73
2018-07-02T08:13:36.562Z,2.23
2018-07-02T08:16:04.890Z,1.67
2018-07-02T08:18:33.619Z,1.50
2018-07-02T08:21:02.023Z,1.57
2018-07-02T08:23:30.472Z,1.80
2018-07-02T08:25:59.735Z,1.43
2018-07-02T08:28:28.115Z,2.00
2018-07-02T08:30:56.487Z,1.80
2018-07-02T08:33:24.834Z,1.47
2018-07-02T08:35:53.143Z,1.40
2018-07-02T08:38:21.479Z,1.70
2018-07-02T08:40:49.987Z,1.50
2018-07-02T08:43:18.337Z,1.57
2018-07-02T08:45:46.650Z,1.60
2018-07-02T08:48:16.089Z,1.20
2018-07-02T08:50:44.494Z,1.07
2018-07-02T08:53:12.915Z,1.93
2018-07-02T08:55:41.687Z,1.70
2018-07-02T08:58:09.972Z,1.53
2018-07-02T09:00:38.208Z,1.63
2018-07-02T09:03:06.494Z,1.13
2018-07-02T09:05:35.335Z,1.57
2018-07-02T09:08:03.628Z,1.27
2018-07-02T09:10:31.935Z,1.83
2018-07-02T09:13:00.317Z,2.00
2018-07-02T09:15:28.708Z,1.50
2018-07-02T09:17:56.926Z,1.40
2018-07-02T09:20:25.235Z,1.27
2018-07-02T09:22:53.639Z,1.30
2018-07-02T09:25:22.234Z,1.80
2018-07-02T09:27:50.483Z,1.90
2018-07-02T09:30:19.742Z,1.50
2018-07-02T09:32:49.026Z,1.37
2018-07-02T09:35:18.239Z,1.70
2018-07-02T09:37:46.550Z,1.40
2018-07-02T09:40:14.955Z,1.77
2018-07-02T09:42:43.303Z,1.40
2018-07-02T09:45:12.051Z,1.60
2018-07-02T09:47:41.367Z,2.13
2018-07-02T09:50:10.095Z,1.20
2018-07-02T09:52:38.477Z,2.23
2018-07-02T09:55:06.908Z,1.80
2018-07-02T09:57:35.434Z,2.23
2018-07-02T10:00:03.731Z,1.30
2018-07-02T10:02:32.032Z,1.50
2018-07-02T10:05:00.462Z,1.70
2018-07-02T10:07:28.800Z,2.07
2018-07-02T10:09:57.250Z,1.13
2018-07-02T10:12:25.505Z,1.60
2018-07-02T10:14:53.870Z,2.10
2018-07-02T10:17:22.256Z,1.53
2018-07-02T10:19:50.596Z,1.80
2018-07-02T10:22:18.929Z,2.03
2018-07-02T10:24:47.231Z,1.90
2018-07-02T10:27:15.540Z,1.67
2018-07-02T10:29:43.829Z,1.33
2018-07-02T10:32:12.219Z,1.83
2018-07-02T10:34:40.513Z,1.80
2018-07-02T10:37:08.859Z,2.00
2018-07-02T10:39:37.961Z,1.90
2018-07-02T10:42:06.371Z,1.90
2018-07-02T10:44:34.675Z,1.70
2018-07-02T10:47:03.181Z,4.23
2018-07-02T10:49:31.412Z,2.40
2018-07-02T10:51:59.883Z,1.97
2018-07-02T10:54:29.143Z,1.73
2018-07-02T10:56:57.530Z,1.93
2018-07-02T10:59:26.701Z,2.10
2018-07-02T11:01:55.171Z,2.17
2018-07-02T11:04:23.607Z,1.87
2018-07-02T11:06:51.880Z,1.73
2018-07-02T11:09:20.243Z,1.83
2018-07-02T11:11:48.650Z,2.13
2018-07-02T11:14:16.965Z,1.87
2018-07-02T11:16:45.177Z,2.00
2018-07-02T11:19:13.510Z,1.63
2018-07-02T11:21:41.914Z,1.73
2018-07-02T11:24:10.245Z,2.00
2018-07-02T11:26:38.470Z,2.20
2018-07-02T11:29:06.775Z,1.80
2018-07-02T11:31:34.996Z,2.07
2018-07-02T11:34:03.398Z,1.90
2018-07-02T11:36:31.726Z,1.87
2018-07-02T11:39:00.079Z,2.50
2018-07-02T11:41:28.444Z,1.93
2018-07-02T11:43:56.721Z,1.40
2018-07-02T11:46:25.096Z,1.93
2018-07-02T11:48:53.721Z,1.87
2018-07-02T11:51:22.059Z,1.40
2018-07-02T11:53:50.497Z,2.27
2018-07-02T11:56:18.817Z,2.27
2018-07-02T11:58:47.112Z,2.10
2018-07-02T12:01:15.535Z,1.90
2018-07-02T12:03:43.885Z,1.80
2018-07-02T12:06:12.383Z,1.80
2018-07-02T12:08:40.787Z,1.80
2018-07-02T12:11:09.140Z,2.03
2018-07-02T12:13:38.507Z,2.37
2018-07-02T12:16:06.845Z,2.10
2018-07-02T12:18:35.195Z,1.93
2018-07-02T12:21:04.506Z,2.40
2018-07-02T12:23:32.808Z,1.90
2018-07-02T12:26:01.193Z,2.00
2018-07-02T12:28:29.455Z,1.87
2018-07-02T12:30:57.760Z,2.17
2018-07-02T12:33:26.089Z,2.40
2018-07-02T12:35:54.457Z,2.23
2018-07-02T12:38:22.867Z,2.80
2018-07-02T12:40:51.220Z,2.30
2018-07-02T12:43:19.460Z,2.10
2018-07-02T12:45:47.807Z,2.10
2018-07-02T12:48:16.098Z,2.20
2018-07-02T12:50:44.402Z,2.23
2018-07-02T12:53:12.596Z,2.13
2018-07-02T12:55:40.894Z,2.03
2018-07-02T12:58:09.364Z,2.47
2018-07-02T13:00:37.766Z,2.10
2018-07-02T13:03:06.011Z,1.93
2018-07-02T13:05:34.395Z,3.27
2018-07-02T13:08:02.777Z,2.87
2018-07-02T13:10:31.139Z,2.30
2018-07-02T13:12:59.398Z,2.70
2018-07-02T13:15:27.727Z,2.30
2018-07-02T13:17:56.027Z,2.83
2018-07-02T13:20:24.281Z,2.67
2018-07-02T13:22:52.555Z,2.27
2018-07-02T13:25:22.983Z,2.05
2018-07-02T13:27:51.283Z,2.50
2018-07-02T13:30:19.564Z,2.40
2018-07-02T13:32:47.958Z,2.98
2018-07-02T13:35:16.202Z,2.90
2018-07-02T13:37:44.693Z,2.77
2018-07-02T13:40:13.060Z,2.55
2018-07-02T13:42:41.337Z,2.50
2018-07-02T13:45:09.794Z,2.83
2018-07-02T13:47:38.267Z,2.75
2018-07-02T13:50:06.925Z,2.90
2018-07-02T13:52:35.353Z,2.98
2018-07-02T13:55:03.681Z,2.87
2018-07-02T13:57:32.149Z,3.08
2018-07-02T14:00:00.412Z,3.12
2018-07-02T14:02:28.868Z,3.12
2018-07-02T14:04:57.431Z,3.33
2018-07-02T14:07:25.827Z,3.60
2018-07-02T14:09:54.177Z,3.17
2018-07-02T14:12:22.440Z,3.15
2018-07-02T14:14:50.695Z,3.37
2018-07-02T14:17:18.963Z,4.08
2018-07-02T14:19:47.206Z,3.33
2018-07-02T14:22:15.491Z,3.10
2018-07-02T14:24:43.775Z,3.37
2018-07-02T14:27:12.145Z,3.30
2018-07-02T14:29:40.576Z,3.50
2018-07-02T14:32:08.903Z,3.55
2018-07-02T14:34:37.357Z,3.85
2018-07-02T14:37:05.720Z,3.20
2018-07-02T14:39:34.120Z,3.40
2018-07-02T14:42:02.420Z,3.42
2018-07-02T14:44:30.726Z,3.70
2018-07-02T14:46:59.060Z,3.80
2018-07-02T14:49:27.367Z,3.67
2018-07-02T14:51:55.688Z,3.33
2018-07-02T14:54:23.978Z,3.60
2018-07-02T14:56:52.415Z,3.67
2018-07-02T14:59:20.941Z,3.40
2018-07-02T15:01:49.324Z,5.85
2018-07-02T15:04:17.622Z,4.78
2018-07-02T15:06:46.986Z,3.77
2018-07-02T15:09:15.219Z,3.98
2018-07-02T15:11:43.734Z,3.90
2018-07-02T15:14:12.052Z,3.40
2018-07-02T15:16:40.469Z,3.65
2018-07-02T15:19:08.882Z,3.52
2018-07-02T15:21:37.131Z,3.52
2018-07-02T15:24:05.617Z,3.72
2018-07-02T15:26:35.140Z,3.67
2018-07-02T15:29:03.522Z,4.87
2018-07-02T15:31:31.821Z,3.72
2018-07-02T15:34:00.122Z,3.90
2018-07-02T15:36:28.519Z,5.22
2018-07-02T15:38:56.768Z,3.77
2018-07-02T15:41:25.172Z,3.60
2018-07-02T15:43:53.492Z,3.45
2018-07-02T15:46:22.952Z,3.65
2018-07-02T15:48:51.219Z,4.00
2018-07-02T15:51:19.616Z,3.40
2018-07-02T15:53:47.933Z,3.75
2018-07-02T15:56:16.217Z,3.70
2018-07-02T15:58:44.617Z,3.30
2018-07-02T16:01:12.887Z,3.90
2018-07-02T16:03:41.190Z,3.55
2018-07-02T16:06:09.449Z,3.70
2018-07-02T16:08:37.731Z,3.80
2018-07-02T16:11:06.167Z,3.92
2018-07-02T16:13:34.582Z,3.77
2018-07-02T16:16:03.049Z,3.90
2018-07-02T16:18:31.335Z,4.03
2018-07-02T16:20:59.943Z,3.90
2018-07-02T16:23:28.159Z,3.80
2018-07-02T16:25:56.503Z,3.60
2018-07-02T16:28:24.764Z,3.50
2018-07-02T16:30:53.072Z,3.10
2018-07-02T16:33:22.273Z,3.67
2018-07-02T16:35:50.682Z,3.42
2018-07-02T16:38:19.097Z,3.47
2018-07-02T16:40:47.539Z,3.47
2018-07-02T16:43:16.039Z,3.42
2018-07-02T16:45:44.423Z,3.52
2018-07-02T16:48:12.692Z,3.27
2018-07-02T16:50:41.225Z,3.10
2018-07-02T16:53:09.603Z,2.90
2018-07-02T16:55:37.971Z,3.22
2018-07-02T16:58:06.386Z,3.00
2018-07-02T17:00:34.750Z,3.00
2018-07-02T17:03:03.244Z,3.02
2018-07-02T17:05:31.639Z,2.90
2018-07-02T17:07:59.994Z,3.40
2018-07-02T17:10:28.366Z,2.98
2018-07-02T17:12:56.778Z,2.70
2018-07-02T17:15:26.042Z,2.87
2018-07-02T17:17:54.460Z,2.60
2018-07-02T17:20:22.900Z,2.98
2018-07-02T17:22:51.280Z,2.35
2018-07-02T17:25:19.696Z,2.40
2018-07-02T17:27:48.036Z,3.25
2018-07-02T17:30:16.312Z,2.67
2018-07-02T17:32:45.458Z,2.80
2018-07-02T17:35:13.892Z,2.60
2018-07-02T17:37:42.201Z,2.80
2018-07-02T17:40:10.518Z,2.73
2018-07-02T17:42:38.882Z,2.70
2018-07-02T17:45:07.325Z,2.73
2018-07-02T17:47:35.666Z,2.77
2018-07-02T17:50:04.103Z,2.17
2018-07-02T17:52:32.416Z,2.37
2018-07-02T17:55:00.814Z,2.20
2018-07-02T17:57:29.241Z,2.57
2018-07-02T17:59:57.672Z,2.03
2018-07-02T18:02:26.070Z,2.87
2018-07-02T18:04:54.345Z,1.97
2018-07-02T18:07:22.774Z,2.60
2018-07-02T18:09:51.060Z,2.10
2018-07-02T18:12:19.436Z,2.50
2018-07-02T18:14:47.822Z,2.40
2018-07-02T18:17:16.264Z,2.67
2018-07-02T18:19:44.549Z,2.40
2018-07-02T18:22:12.818Z,2.80
2018-07-02T18:24:41.136Z,2.60
2018-07-02T18:27:09.508Z,2.43
2018-07-02T18:29:37.806Z,2.37
2018-07-02T18:32:06.315Z,2.20
2018-07-02T18:34:34.738Z,3.07
2018-07-02T18:37:03.135Z,3.00
2018-07-02T18:39:31.564Z,2.67
2018-07-02T18:41:59.969Z,2.27
2018-07-02T18:44:28.322Z,2.77
2018-07-02T18:46:56.571Z,2.20
2018-07-02T18:49:24.811Z,2.80
2018-07-02T18:51:54.240Z,2.50
2018-07-02T18:54:22.555Z,3.13
2018-07-02T18:56:50.930Z,2.70
2018-07-02T18:59:19.245Z,2.43
2018-07-02T19:01:47.594Z,1.97
2018-07-02T19:04:15.814Z,2.90
2018-07-02T19:06:44.169Z,2.50
2018-07-02T19:09:12.515Z,1.80
2018-07-02T19:11:40.767Z,2.10
2018-07-02T19:14:09.160Z,2.30
2018-07-02T19:16:37.519Z,1.90
2018-07-02T19:19:05.964Z,2.23
2018-07-02T19:21:34.370Z,1.90
2018-07-02T19:24:02.623Z,1.73
2018-07-02T19:26:30.884Z,2.13
2018-07-02T19:28:59.123Z,2.30
2018-07-02T19:31:27.504Z,2.60
2018-07-02T19:33:55.749Z,1.60
2018-07-02T19:36:23.983Z,1.90
2018-07-02T19:38:52.188Z,1.63
2018-07-02T19:41:20.544Z,1.87
2018-07-02T19:43:48.877Z,2.07
2018-07-02T19:46:17.264Z,2.17
2018-07-02T19:48:45.704Z,2.00
2018-07-02T19:51:13.972Z,1.63
2018-07-02T19:53:42.288Z,1.77
2018-07-02T19:56:10.717Z,1.77
2018-07-02T19:58:38.972Z,1.80
2018-07-02T20:01:07.212Z,2.10
2018-07-02T20:03:35.457Z,1.63
2018-07-02T20:06:03.857Z,1.60
2018-07-02T20:08:32.161Z,2.10
2018-07-02T20:11:00.534Z,1.43
2018-07-02T20:13:29.741Z,1.70
2018-07-02T20:15:57.939Z,1.73
2018-07-02T20:18:26.455Z,3.10
2018-07-02T20:20:54.752Z,1.63
2018-07-02T20:23:23.088Z,1.90
2018-07-02T20:25:51.456Z,1.83
2018-07-02T20:28:19.696Z,1.50
2018-07-02T20:30:48.103Z,1.60
2018-07-02T20:33:17.412Z,1.50
2018-07-02T20:35:45.813Z,1.57
2018-07-02T20:38:14.189Z,1.40
2018-07-02T20:40:42.455Z,1.70
2018-07-02T20:43:10.797Z,1.40
2018-07-02T20:45:39.101Z,2.03
2018-07-02T20:48:07.315Z,1.20
2018-07-02T20:50:35.655Z,1.43
2018-07-02T20:53:04.072Z,1.60
2018-07-02T20:55:32.467Z,1.60
2018-07-02T20:58:00.811Z,2.20
2018-07-02T21:00:30.755Z,1.33
2018-07-02T21:02:59.998Z,1.07
2018-07-02T21:05:28.374Z,1.47
2018-07-02T21:07:56.815Z,1.80
2018-07-02T21:10:25.167Z,1.30
2018-07-02T21:12:53.448Z,1.30
2018-07-02T21:15:21.879Z,1.60
2018-07-02T21:17:50.149Z,1.80
2018-07-02T21:20:18.543Z,1.80
2018-07-02T21:22:46.857Z,2.03
2018-07-02T21:25:15.096Z,2.03
2018-07-02T21:27:43.445Z,1.40
2018-07-02T21:30:11.795Z,1.77
2018-07-02T21:32:40.051Z,1.50
2018-07-02T21:35:09.405Z,2.17
2018-07-02T21:37:37.685Z,2.13
2018-07-02T21:40:06.001Z,1.73
2018-07-02T21:42:34.284Z,1.70
2018-07-02T21:45:02.613Z,1.87
2018-07-02T21:47:30.963Z,1.60
2018-07-02T21:49:59.248Z,2.00
2018-07-02T21:52:27.642Z,1.90
2018-07-02T21:54:55.943Z,1.97
2018-07-02T21:57:24.363Z,2.10
2018-07-02T21:59:52.790Z,1.70
2018-07-02T22:02:21.214Z,1.90
2018-07-02T22:04:49.479Z,1.70
2018-07-02T22:07:17.778Z,1.67
2018-07-02T22:09:46.149Z,2.07
2018-07-02T22:12:14.425Z,1.93
2018-07-02T22:14:42.824Z,2.23
2018-07-02T22:17:11.094Z,1.77
2018-07-02T22:19:39.483Z,2.33
2018-07-02T22:22:07.759Z,2.20
2018-07-02T22:24:36.102Z,1.67
2018-07-02T22:27:05.566Z,2.83
2018-07-02T22:29:34.847Z,1.70
2018-07-02T22:32:03.132Z,2.03
2018-07-02T22:34:31.541Z,1.90
2018-07-02T22:36:59.861Z,1.93
2018-07-02T22:39:28.177Z,1.80
2018-07-02T22:41:56.480Z,1.77
2018-07-02T22:44:24.776Z,1.70
2018-07-02T22:46:52.988Z,2.33
2018-07-02T22:49:21.295Z,1.77
2018-07-02T22:51:49.622Z,1.77
2018-07-02T22:54:17.975Z,1.80
2018-07-02T22:56:46.271Z,1.97
2018-07-02T22:59:14.648Z,2.03
2018-07-02T23:01:43.033Z,2.17
2018-07-02T23:04:11.256Z,2.00
2018-07-02T23:06:39.670Z,2.00
2018-07-02T23:09:08.812Z,1.93
2018-07-02T23:11:38.032Z,2.03
2018-07-02T23:14:06.473Z,1.77
2018-07-02T23:16:34.830Z,1.83
2018-07-02T23:19:03.267Z,1.60
2018-07-02T23:21:31.556Z,1.70
2018-07-02T23:23:59.904Z,1.70
2018-07-02T23:26:28.304Z,2.37
2018-07-02T23:28:56.626Z,1.97
2018-07-02T23:31:25.017Z,1.77
2018-07-02T23:33:54.351Z,2.00
2018-07-02T23:36:22.612Z,1.93
2018-07-02T23:38:50.959Z,2.07
2018-07-02T23:41:22.618Z,1.97
2018-07-02T23:43:50.825Z,1.70
2018-07-02T23:46:19.177Z,1.53
2018-07-02T23:48:47.441Z,1.87
2018-07-02T23:51:15.843Z,2.03
2018-07-02T23:53:44.048Z,1.80
2018-07-02T23:56:12.381Z,1.93
2018-07-02T23:58:40.613Z,2.20
